Time;durP1;ratioP1;P1;durP2;ratioP2;P2;SDS_P1;SDS_P2;PMS_P1;PMS_P2;Temp;Humidity;BMP_temperature;BMP_pressure;BME280_temperature;BME280_humidity;BME280_pressure;Samples;Min_cycle;Max_cycle;Signal;HPM_P1;HPM_P2
2021/05/22 00:00:15;;;;;;;9.13;1.73;;;;;;;8.97;94.18;99890.03;6214973;28;20065;-75
2021/05/22 00:03:17;;;;;;;7.38;1.58;;;;;;;8.94;92.47;99892.81;6207786;28;20058;-75
2021/05/22 00:06:18;;;;;;;3.92;1.40;;;;;;;8.91;91.36;99887.78;6208228;28;20097;-75
2021/05/22 00:09:19;;;;;;;9.93;2.03;;;;;;;8.83;94.19;99885.63;6208163;28;20059;-75
2021/05/22 00:12:19;;;;;;;5.38;1.48;;;;;;;8.84;94.43;99888.13;6208484;28;20072;-75
2021/05/22 00:15:21;;;;;;;11.80;1.70;;;;;;;8.79;93.14;99879.72;6208468;28;20104;-75
2021/05/22 00:18:22;;;;;;;4.85;1.42;;;;;;;8.69;93.08;99872.50;6209873;28;20053;-75
2021/05/22 00:21:23;;;;;;;6.75;1.17;;;;;;;8.68;92.13;99865.59;6222109;28;20049;-75
2021/05/22 00:24:24;;;;;;;4.72;1.40;;;;;;;8.64;93.36;99862.31;6222047;28;20465;-75
2021/05/22 00:27:25;;;;;;;8.50;1.88;;;;;;;8.67;93.70;99863.88;6221814;28;20548;-75
2021/05/22 00:30:26;;;;;;;4.38;1.23;;;;;;;8.64;92.80;99851.84;6221786;28;20057;-75
2021/05/22 00:33:28;;;;;;;6.65;1.42;;;;;;;8.65;93.42;99850.88;6222108;28;20408;-75
2021/05/22 00:36:29;;;;;;;5.03;1.52;;;;;;;8.64;93.95;99850.06;6221781;28;20049;-75
2021/05/22 00:39:30;;;;;;;6.35;1.30;;;;;;;8.67;93.94;99853.41;6221901;28;20054;-75
2021/05/22 00:42:33;;;;;;;8.20;1.67;;;;;;;8.69;93.74;99856.78;6222084;28;20406;-75
2021/05/22 00:45:35;;;;;;;6.75;1.75;;;;;;;8.76;92.13;99850.25;6221881;28;20050;-75
2021/05/22 00:48:37;;;;;;;4.60;1.35;;;;;;;8.69;92.71;99856.78;6221479;28;20046;-75
2021/05/22 00:51:38;;;;;;;11.55;1.52;;;;;;;8.68;92.57;99849.88;6222049;28;20046;-75
2021/05/22 00:54:40;;;;;;;7.97;1.60;;;;;;;8.75;92.82;99853.81;6221730;28;20054;-75
2021/05/22 00:57:41;;;;;;;8.50;1.88;;;;;;;8.87;90.86;99855.69;6221350;28;20049;-75
2021/05/22 01:00:45;;;;;;;11.18;1.88;;;;;;;8.96;90.56;99854.28;6221619;28;20050;-75
2021/05/22 01:03:51;;;;;;;5.82;1.20;;;;;;;8.89;90.51;99846.78;6222458;28;20050;-75
2021/05/22 01:06:52;;;;;;;6.07;1.33;;;;;;;8.89;91.35;99846.78;6263093;23;20053;-78
2021/05/22 01:09:56;;;;;;;8.13;1.67;;;;;;;8.96;90.52;99851.66;6251390;28;20416;-78
2021/05/22 01:12:57;;;;;;;7.25;1.63;;;;;;;8.97;89.16;99851.56;6252372;28;20061;-78
2021/05/22 01:15:58;;;;;;;9.05;1.30;;;;;;;8.97;90.45;99841.09;6234641;28;20116;-78
2021/05/22 01:19:02;;;;;;;5.93;1.20;;;;;;;8.90;90.23;99850.25;6228124;28;20061;-77
2021/05/22 01:22:03;;;;;;;5.75;1.33;;;;;;;8.95;90.85;99847.34;6247535;28;20041;-78
2021/05/22 01:25:07;;;;;;;7.13;1.48;;;;;;;8.96;90.17;99849.88;6252366;28;20064;-76
2021/05/22 01:28:11;;;;;;;5.93;1.20;;;;;;;9.01;90.32;99846.97;6252403;28;20519;-78
2021/05/22 01:31:12;;;;;;;7.00;1.20;;;;;;;8.98;89.56;99849.78;6252537;28;20072;-78
2021/05/22 01:34:13;;;;;;;7.28;1.20;;;;;;;9.01;89.25;99834.72;6253003;28;20049;-78
2021/05/22 01:37:14;;;;;;;6.93;1.33;;;;;;;9.00;89.45;99833.03;6252404;28;20046;-78
2021/05/22 01:40:15;;;;;;;9.90;1.20;;;;;;;8.99;91.21;99835.75;6253077;28;20565;-78
2021/05/22 01:43:19;;;;;;;6.65;1.08;;;;;;;8.95;90.52;99836.84;6251894;28;20057;-78
2021/05/22 01:46:23;;;;;;;6.18;1.20;;;;;;;8.88;90.46;99839.03;6252443;28;20092;-78
2021/05/22 01:49:26;;;;;;;6.32;0.95;;;;;;;8.86;90.07;99828.66;6251890;28;20056;-78
2021/05/22 01:52:28;;;;;;;6.72;0.90;;;;;;;8.84;90.37;99833.13;6252018;28;20163;-77
2021/05/22 01:55:29;;;;;;;4.10;1.08;;;;;;;8.83;90.02;99828.00;6251867;28;20053;-78
2021/05/22 01:58:31;;;;;;;6.20;1.30;;;;;;;8.82;90.07;99827.16;6251906;28;20045;-79
2021/05/22 02:01:32;;;;;;;5.70;1.00;;;;;;;8.82;89.64;99834.16;6252014;28;20049;-79
2021/05/22 02:04:36;;;;;;;4.00;1.20;;;;;;;8.84;90.02;99827.03;6252636;28;20053;-78
2021/05/22 02:07:38;;;;;;;7.30;1.02;;;;;;;8.82;90.31;99816.66;6251919;28;20056;-78
2021/05/22 02:10:40;;;;;;;5.65;1.10;;;;;;;8.91;88.34;99814.44;6252287;28;20057;-77
2021/05/22 02:13:44;;;;;;;7.57;1.77;;;;;;;8.86;88.90;99809.47;6252107;28;20140;-78
2021/05/22 02:16:48;;;;;;;7.97;1.25;;;;;;;8.92;87.19;99822.19;6252175;28;20094;-78
2021/05/22 02:19:52;;;;;;;3.42;0.95;;;;;;;8.95;88.35;99823.75;6251507;28;20057;-78
2021/05/22 02:22:56;;;;;;;6.20;1.20;;;;;;;8.94;87.57;99814.22;6252081;28;20100;-77
2021/05/22 02:25:58;;;;;;;7.55;1.13;;;;;;;8.88;87.85;99811.03;6251893;28;20065;-78
2021/05/22 02:29:01;;;;;;;9.45;1.30;;;;;;;8.91;86.25;99815.28;6251716;28;20057;-77
2021/05/22 02:32:05;;;;;;;3.35;0.93;;;;;;;8.93;87.67;99816.00;6252443;28;20053;-78
2021/05/22 02:35:08;;;;;;;3.25;1.00;;;;;;;8.97;86.85;99809.63;6251888;28;20053;-78
2021/05/22 02:38:13;;;;;;;6.60;1.00;;;;;;;8.97;88.34;99808.81;6252343;28;20042;-78
2021/05/22 02:41:14;;;;;;;4.57;1.25;;;;;;;8.93;87.32;99816.00;6252196;28;20099;-78
2021/05/22 02:44:18;;;;;;;4.85;1.00;;;;;;;8.96;85.73;99810.59;6251800;28;20057;-78
2021/05/22 02:47:21;;;;;;;3.25;0.90;;;;;;;9.00;86.22;99816.47;6252181;28;20053;-78
2021/05/22 02:50:23;;;;;;;4.53;0.80;;;;;;;9.02;86.09;99819.84;6251581;28;20052;-77
2021/05/22 02:53:26;;;;;;;6.90;1.00;;;;;;;9.08;85.86;99815.06;6251035;28;20496;-78
2021/05/22 02:56:31;;;;;;;2.90;1.10;;;;;;;8.97;86.07;99808.81;6252606;28;20046;-78
2021/05/22 02:59:33;;;;;;;3.67;1.00;;;;;;;9.02;85.33;99807.56;6251551;28;20049;-78
2021/05/22 03:02:36;;;;;;;9.35;1.52;;;;;;;9.05;85.13;99806.56;6250779;28;20045;-78
2021/05/22 03:05:40;;;;;;;2.63;1.23;;;;;;;9.04;85.68;99810.97;6250575;28;20451;-78
2021/05/22 03:08:45;;;;;;;5.40;1.08;;;;;;;8.97;85.56;99814.03;6250619;28;20056;-78
2021/05/22 03:11:46;;;;;;;6.85;1.00;;;;;;;8.97;85.72;99814.88;6250911;28;20412;-78
2021/05/22 03:14:48;;;;;;;3.28;1.00;;;;;;;8.94;86.37;99812.44;6250978;28;20064;-79
2021/05/22 03:17:49;;;;;;;3.72;0.80;;;;;;;8.98;85.86;99816.56;6250710;28;20042;-78
2021/05/22 03:20:50;;;;;;;5.55;1.00;;;;;;;8.94;86.16;99808.97;6250745;28;20057;-78
2021/05/22 03:23:51;;;;;;;8.00;1.55;;;;;;;8.99;84.96;99812.16;6250716;28;20136;-78
2021/05/22 03:26:53;;;;;;;2.53;0.82;;;;;;;8.97;85.33;99809.63;6250799;28;20057;-78
2021/05/22 03:29:55;;;;;;;3.58;0.90;;;;;;;8.99;85.38;99799.88;6251206;28;20060;-79
2021/05/22 03:32:55;;;;;;;2.75;0.90;;;;;;;9.00;84.87;99796.34;6251184;28;20049;-78
2021/05/22 03:35:56;;;;;;;4.97;0.85;;;;;;;9.02;84.74;99797.09;6250857;28;20550;-78
2021/05/22 03:38:57;;;;;;;3.53;0.82;;;;;;;8.97;85.90;99795.69;6250903;28;20515;-78
2021/05/22 03:41:58;;;;;;;5.13;0.88;;;;;;;8.99;84.92;99794.66;6251028;28;20045;-78
2021/05/22 03:45:00;;;;;;;6.55;1.13;;;;;;;8.99;84.46;99791.19;6250959;28;20203;-78
2021/05/22 03:48:01;;;;;;;4.55;1.38;;;;;;;8.97;85.51;99790.47;6251327;28;20041;-78
2021/05/22 03:51:01;;;;;;;5.80;1.23;;;;;;;8.93;85.43;99784.56;6264679;28;20056;-78
2021/05/22 03:54:04;;;;;;;4.25;0.90;;;;;;;8.97;85.39;99785.22;6266749;28;20049;-78
2021/05/22 03:57:05;;;;;;;10.50;1.20;;;;;;;8.99;86.14;99781.53;6267734;28;20049;-78
2021/05/22 04:00:09;;;;;;;4.32;1.55;;;;;;;8.89;86.50;99781.28;6267021;28;20099;-78
2021/05/22 04:03:10;;;;;;;10.65;1.75;;;;;;;8.99;84.24;99783.31;6267007;28;20061;-78
2021/05/22 04:06:11;;;;;;;9.07;1.17;;;;;;;9.04;83.65;99776.88;6268039;28;20072;-78
2021/05/22 04:09:11;;;;;;;4.45;1.10;;;;;;;9.06;85.04;99772.38;6265045;28;20056;-78
2021/05/22 04:12:12;;;;;;;4.82;0.95;;;;;;;9.07;83.91;99770.59;6265371;28;20049;-77
2021/05/22 04:15:14;;;;;;;5.75;1.08;;;;;;;9.12;83.30;99774.59;6266911;28;20377;-78
2021/05/22 04:18:15;;;;;;;6.20;1.30;;;;;;;9.24;82.99;99757.28;6262663;28;20046;-78
2021/05/22 04:21:16;;;;;;;3.13;0.57;;;;;;;9.23;83.52;99762.63;6265551;28;20049;-77
2021/05/22 04:24:17;;;;;;;6.88;1.00;;;;;;;9.18;83.43;99760.28;6256826;28;20475;-77
2021/05/22 04:27:18;;;;;;;11.63;1.02;;;;;;;9.25;83.80;99764.19;6248376;28;20509;-77
2021/05/22 04:30:21;;;;;;;6.13;1.70;;;;;;;9.23;83.70;99765.25;6248576;28;20049;-77
2021/05/22 04:33:22;;;;;;;8.73;2.10;;;;;;;9.26;81.75;99760.63;6247840;28;20484;-77
2021/05/22 04:36:23;;;;;;;4.22;1.27;;;;;;;9.30;82.41;99767.34;6247761;28;20084;-77
2021/05/22 04:39:24;;;;;;;5.85;1.10;;;;;;;9.42;81.04;99757.03;6249633;28;20080;-78
2021/05/22 04:42:25;;;;;;;7.75;1.15;;;;;;;9.43;82.49;99762.19;6252612;28;20053;-78
2021/05/22 04:45:26;;;;;;;4.95;1.10;;;;;;;9.65;79.95;99769.50;6250784;28;20056;-78
2021/05/22 04:48:27;;;;;;;2.17;0.88;;;;;;;9.74;79.11;99757.56;6251653;28;20484;-77
2021/05/22 04:51:28;;;;;;;3.80;0.90;;;;;;;9.70;78.97;99774.44;6251702;28;20045;-79
2021/05/22 04:54:29;;;;;;;4.47;0.82;;;;;;;9.78;79.57;99759.06;6251794;28;20084;-78
2021/05/22 04:57:30;;;;;;;9.00;1.33;;;;;;;9.81;78.26;99762.31;6251824;28;20053;-78
2021/05/22 05:00:32;;;;;;;6.32;1.35;;;;;;;9.90;78.50;99761.72;6251731;28;20049;-78
2021/05/22 05:03:33;;;;;;;10.07;1.10;;;;;;;9.94;79.37;99762.31;6251764;28;20562;-79
2021/05/22 05:06:34;;;;;;;5.70;0.95;;;;;;;10.11;77.80;99764.66;6252011;28;20060;-77
2021/05/22 05:09:36;;;;;;;11.68;1.33;;;;;;;10.14;77.01;99759.22;6251778;28;20049;-78
2021/05/22 05:12:37;;;;;;;5.97;1.00;;;;;;;10.16;77.53;99754.69;6251769;28;20053;-77
2021/05/22 05:15:39;;;;;;;11.88;1.20;;;;;;;10.40;75.97;99752.22;6251869;28;20060;-77
2021/05/22 05:18:40;;;;;;;4.53;0.98;;;;;;;10.45;76.48;99754.53;6251404;28;20053;-77
2021/05/22 05:21:41;;;;;;;9.10;1.00;;;;;;;10.54;75.42;99755.69;6251896;28;20482;-77
2021/05/22 05:24:41;;;;;;;6.72;1.42;;;;;;;10.62;76.21;99761.25;6251825;28;20463;-77
2021/05/22 05:27:42;;;;;;;6.07;0.90;;;;;;;10.77;74.20;99754.94;6251279;28;20093;-76
2021/05/22 05:30:44;;;;;;;9.82;2.00;;;;;;;10.85;73.83;99765.72;6250496;28;20128;-76
2021/05/22 05:33:45;;;;;;;6.65;1.38;;;;;;;10.81;74.02;99764.28;6249737;28;20091;-76
2021/05/22 05:36:46;;;;;;;5.57;0.95;;;;;;;10.82;74.86;99763.34;6250164;28;20132;-76
2021/05/22 05:39:46;;;;;;;3.40;1.27;;;;;;;10.89;73.07;99753.22;6250210;28;20045;-76
2021/05/22 05:42:48;;;;;;;4.10;0.90;;;;;;;10.87;74.48;99766.47;6250087;28;20409;-76
2021/05/22 05:45:50;;;;;;;7.05;1.30;;;;;;;11.00;72.40;99752.47;6249861;28;20060;-77
2021/05/22 05:48:51;;;;;;;7.35;1.30;;;;;;;10.98;71.92;99773.59;6249626;28;20052;-77
2021/05/22 05:51:52;;;;;;;7.53;1.45;;;;;;;10.97;71.56;99765.84;6250378;28;20046;-77
2021/05/22 05:54:53;;;;;;;6.43;1.00;;;;;;;11.04;72.32;99770.56;6250998;28;20049;-77
2021/05/22 05:57:55;;;;;;;10.43;1.10;;;;;;;11.06;73.41;99765.19;6251144;28;20132;-78
2021/05/22 06:00:57;;;;;;;6.80;1.13;;;;;;;11.06;73.85;99770.44;6251434;28;20053;-77
2021/05/22 06:03:58;;;;;;;4.85;1.20;;;;;;;11.08;73.28;99772.03;6251582;28;20555;-78
2021/05/22 06:06:59;;;;;;;10.35;1.52;;;;;;;11.06;72.98;99770.44;6251589;28;20049;-77
2021/05/22 06:10:00;;;;;;;11.95;2.13;;;;;;;11.24;72.80;99766.50;6250318;28;20055;-76
2021/05/22 06:13:01;;;;;;;12.15;1.15;;;;;;;11.30;71.67;99768.66;6251840;28;20103;-77
2021/05/22 06:16:12;;;;;;;6.35;1.02;;;;;;;11.25;71.91;99777.84;6251460;28;20077;-78
2021/05/22 06:19:12;;;;;;;6.68;0.95;;;;;;;11.32;71.55;99761.53;6250821;28;20045;-78
2021/05/22 06:22:13;;;;;;;6.68;1.30;;;;;;;11.24;72.06;99771.75;6252041;28;20064;-78
2021/05/22 06:25:14;;;;;;;5.05;0.90;;;;;;;11.19;73.02;99768.63;6250781;28;20046;-77
2021/05/22 06:28:15;;;;;;;5.55;1.30;;;;;;;11.36;72.26;99768.25;6249210;28;20432;-77
2021/05/22 06:31:17;;;;;;;11.00;1.55;;;;;;;11.27;71.50;99761.03;6250413;28;20050;-80
2021/05/22 06:34:18;;;;;;;6.97;1.23;;;;;;;11.23;71.28;99758.72;6249693;28;20052;-78
2021/05/22 06:37:19;;;;;;;11.88;1.35;;;;;;;11.14;72.92;99762.84;6250051;28;20053;-78
2021/05/22 06:40:20;;;;;;;4.13;1.42;;;;;;;11.11;72.89;99773.56;6249386;28;20057;-77
2021/05/22 06:43:21;;;;;;;6.22;1.10;;;;;;;11.23;72.25;99774.50;6249832;28;20554;-78
2021/05/22 06:49:42;;;;;;;7.97;1.33;;;;;;;11.24;71.84;99752.50;6249393;28;20053;-78
2021/05/22 06:52:43;;;;;;;7.90;1.35;;;;;;;11.28;72.74;99767.97;6250209;28;20183;-79
2021/05/22 06:55:44;;;;;;;8.98;1.30;;;;;;;11.27;72.76;99750.50;6249968;28;20492;-80
2021/05/22 06:58:45;;;;;;;10.80;1.20;;;;;;;11.27;73.16;99755.75;6250906;28;20052;-81
2021/05/22 07:01:47;;;;;;;6.07;0.95;;;;;;;11.38;72.47;99768.13;6249949;28;20413;-81
2021/05/22 07:04:48;;;;;;;5.30;1.05;;;;;;;11.57;71.70;99757.09;6250705;28;20057;-78
2021/05/22 07:07:49;;;;;;;5.57;1.20;;;;;;;11.68;71.23;99763.25;6248565;23;20062;-74
2021/05/22 07:10:51;;;;;;;6.22;1.27;;;;;;;11.74;72.18;99758.50;6223283;28;20079;-74
2021/05/22 07:13:52;;;;;;;6.85;0.88;;;;;;;11.88;71.27;99751.28;6223289;28;20489;-74
2021/05/22 07:16:55;;;;;;;8.88;1.13;;;;;;;11.96;70.42;99763.88;6223244;28;20046;-74
2021/05/22 07:19:56;;;;;;;8.20;1.17;;;;;;;11.90;70.04;99759.91;6216917;28;20046;-74
2021/05/22 07:22:57;;;;;;;7.53;1.20;;;;;;;11.91;70.28;99760.75;6208462;28;20080;-74
2021/05/22 07:25:58;;;;;;;5.40;1.50;;;;;;;11.94;70.30;99763.13;6218901;28;20061;-74
2021/05/22 07:28:59;;;;;;;3.83;1.02;;;;;;;11.96;70.92;99774.41;6199335;28;20054;-74
2021/05/22 07:32:01;;;;;;;9.32;1.40;;;;;;;12.02;67.16;99783.63;6198666;28;20050;-74
2021/05/22 07:35:02;;;;;;;8.45;0.85;;;;;;;12.04;68.94;99761.53;6198466;28;20046;-74
2021/05/22 07:38:03;;;;;;;6.85;0.98;;;;;;;12.07;69.14;99756.00;6197902;28;20489;-73
2021/05/22 07:41:04;;;;;;;5.30;1.02;;;;;;;12.10;68.35;99773.38;6199630;28;20061;-72
2021/05/22 07:44:06;;;;;;;7.95;1.10;;;;;;;12.11;69.90;99775.88;6222485;28;20042;-72
2021/05/22 07:47:08;;;;;;;6.28;1.70;;;;;;;12.06;68.29;99780.66;6222428;28;20054;-72
2021/05/22 07:50:09;;;;;;;6.10;1.15;;;;;;;12.05;67.16;99783.41;6222389;28;20050;-73
2021/05/22 07:53:10;;;;;;;8.15;1.30;;;;;;;12.00;70.36;99775.03;6222347;28;20054;-73
2021/05/22 07:56:11;;;;;;;3.75;0.80;;;;;;;12.11;68.20;99770.63;6222679;28;20104;-75
2021/05/22 07:59:11;;;;;;;7.03;2.15;;;;;;;12.03;69.83;99769.50;6222079;28;20497;-75
2021/05/22 08:02:14;;;;;;;10.32;1.10;;;;;;;12.01;68.83;99781.97;6222244;28;20092;-74
2021/05/22 08:05:15;;;;;;;7.82;1.00;;;;;;;12.02;67.80;99789.75;6222500;28;20159;-76
2021/05/22 08:08:15;;;;;;;3.83;1.20;;;;;;;11.97;67.36;99783.97;6221682;28;20204;-75
2021/05/22 08:11:16;;;;;;;8.07;1.17;;;;;;;11.98;69.45;99785.66;6222250;28;20163;-74
2021/05/22 08:14:18;;;;;;;6.22;1.05;;;;;;;11.94;69.77;99792.09;6221920;28;20057;-73
2021/05/22 08:17:19;;;;;;;8.05;1.88;;;;;;;11.84;70.70;99791.09;6222109;28;20056;-73
2021/05/22 08:20:20;;;;;;;4.18;0.98;;;;;;;11.86;70.76;99802.38;6221617;28;20053;-73
2021/05/22 08:23:21;;;;;;;8.30;2.28;;;;;;;11.85;69.67;99798.03;6222117;28;20058;-73
2021/05/22 08:26:23;;;;;;;5.85;1.27;;;;;;;11.73;71.26;99835.78;6219307;28;20116;-74
2021/05/22 08:29:24;;;;;;;6.65;1.10;;;;;;;11.57;71.12;99807.94;6218556;28;20045;-77
2021/05/22 08:32:28;;;;;;;5.10;0.95;;;;;;;11.41;74.50;99810.00;6213107;28;20133;-74
2021/05/22 08:35:30;;;;;;;7.07;1.00;;;;;;;11.30;77.97;99823.91;6216790;28;20488;-74
2021/05/22 08:38:30;;;;;;;3.28;1.15;;;;;;;11.23;79.79;99817.41;6221868;28;20053;-73
2021/05/22 08:41:34;;;;;;;4.40;1.15;;;;;;;11.09;79.97;99810.50;6221796;28;20053;-74
2021/05/22 08:44:38;;;;;;;4.78;1.33;;;;;;;10.89;81.65;99832.06;6221998;28;20057;-74
2021/05/22 08:47:41;;;;;;;7.85;1.27;;;;;;;10.67;83.58;99819.56;6221627;28;20050;-73
2021/05/22 08:50:42;;;;;;;7.40;1.27;;;;;;;10.65;86.05;99834.59;6219403;28;20054;-72
2021/05/22 08:53:44;;;;;;;6.80;1.50;;;;;;;10.76;86.08;99826.81;6211016;28;20108;-73
2021/05/22 08:56:45;;;;;;;5.40;1.45;;;;;;;10.82;85.71;99821.16;6204766;28;20054;-74
2021/05/22 08:59:48;;;;;;;6.88;1.67;;;;;;;10.96;86.04;99814.94;6205354;28;20054;-75
2021/05/22 09:02:49;;;;;;;5.85;0.90;;;;;;;10.95;87.87;99823.78;6221667;28;20065;-72
2021/05/22 09:05:50;;;;;;;7.40;1.45;;;;;;;11.05;87.34;99826.59;6221337;28;20045;-73
2021/05/22 09:08:59;;;;;;;10.07;1.30;;;;;;;11.03;87.50;99836.38;6221178;28;20050;-72
2021/05/22 09:12:00;;;;;;;8.77;1.35;;;;;;;10.84;89.11;99836.81;6221859;28;20050;-75
2021/05/22 09:15:06;;;;;;;7.85;1.30;;;;;;;10.57;90.42;99835.13;6220377;28;20100;-75
2021/05/22 09:18:11;;;;;;;6.47;1.27;;;;;;;10.38;89.95;99838.16;6219023;28;20566;-74
2021/05/22 09:21:13;;;;;;;8.93;1.60;;;;;;;10.27;93.33;99840.66;6217464;28;20042;-74
2021/05/22 09:24:15;;;;;;;5.10;1.20;;;;;;;10.19;95.49;99840.31;6220735;28;20049;-74
2021/05/22 09:27:16;;;;;;;4.95;1.63;;;;;;;10.24;95.16;99834.75;6215023;28;20413;-74
2021/05/22 09:30:18;;;;;;;7.28;1.60;;;;;;;10.35;97.12;99833.09;6218939;28;20057;-74
2021/05/22 09:33:21;;;;;;;8.13;1.30;;;;;;;10.39;98.20;99839.81;6225490;28;20061;-74
2021/05/22 09:36:22;;;;;;;7.40;1.10;;;;;;;10.59;95.40;99830.63;6216106;28;20050;-72
2021/05/22 09:39:23;;;;;;;5.38;1.10;;;;;;;10.53;95.76;99838.91;6214691;28;20194;-75
2021/05/22 09:42:25;;;;;;;9.57;1.70;;;;;;;10.46;96.92;99845.53;6201195;28;20498;-72
2021/05/22 09:45:32;;;;;;;9.20;1.80;;;;;;;10.50;98.13;99836.50;6200922;28;20057;-72
2021/05/22 09:48:34;;;;;;;4.00;1.65;;;;;;;10.47;96.48;99844.56;6203626;28;20049;-72
2021/05/22 09:51:54;;;;;;;5.00;1.10;;;;;;;10.50;98.92;99854.88;6216979;28;20417;-72
2021/05/22 09:54:58;;;;;;;10.30;2.75;;;;;;;10.33;99.08;99856.00;6225446;28;20058;-73
2021/05/22 09:57:59;;;;;;;10.65;1.55;;;;;;;10.29;99.46;99841.41;6224808;28;20050;-74
2021/05/22 10:01:00;;;;;;;5.78;1.35;;;;;;;10.32;100.00;99850.88;6224947;28;20096;-74
2021/05/22 10:04:17;;;;;;;6.38;1.52;;;;;;;10.20;99.45;99857.72;6223229;28;20727;-74
2021/05/22 10:07:33;;;;;;;6.93;1.05;;;;;;;10.21;100.00;99855.94;6215031;28;20096;-74
2021/05/22 10:10:40;;;;;;;6.78;1.85;;;;;;;10.09;100.00;99863.69;6220458;28;20057;-72
2021/05/22 10:13:42;;;;;;;2.42;1.05;;;;;;;10.06;100.00;99857.78;6209322;28;20714;-74
2021/05/22 10:16:43;;;;;;;5.85;1.38;;;;;;;10.05;100.00;99861.38;6221813;28;20497;-73
2021/05/22 10:19:46;;;;;;;7.53;1.25;;;;;;;10.00;100.00;99869.56;6209568;28;20049;-73
2021/05/22 10:22:48;;;;;;;5.88;1.38;;;;;;;9.99;100.00;99870.50;6211989;28;20100;-74
2021/05/22 10:25:49;;;;;;;7.45;1.50;;;;;;;10.01;100.00;99873.00;6215802;28;20047;-76
2021/05/22 10:28:51;;;;;;;11.23;1.75;;;;;;;9.94;100.00;99875.19;6199894;28;20053;-73
2021/05/22 10:31:53;;;;;;;6.55;1.52;;;;;;;9.93;100.00;99875.28;6221395;28;20054;-73
2021/05/22 10:34:55;;;;;;;3.72;1.20;;;;;;;10.01;100.00;99871.22;6224333;28;20056;-73
2021/05/22 10:37:57;;;;;;;8.15;2.00;;;;;;;10.01;100.00;99873.00;6214342;28;20049;-73
2021/05/22 10:40:58;;;;;;;5.00;1.05;;;;;;;9.88;100.00;99886.06;6200866;28;20050;-76
2021/05/22 10:44:01;;;;;;;6.85;1.10;;;;;;;9.80;100.00;99896.22;6199482;28;20050;-74
2021/05/22 10:47:03;;;;;;;2.47;0.90;;;;;;;9.79;100.00;99894.53;6199375;28;20593;-73
2021/05/22 10:50:05;;;;;;;3.90;1.23;;;;;;;9.85;100.00;99888.88;6199419;28;20062;-73
2021/05/22 10:53:34;;;;;;;5.60;1.08;;;;;;;9.75;100.00;99908.78;6212114;28;20057;-76
2021/05/22 10:57:01;;;;;;;4.50;0.70;;;;;;;9.66;100.00;99903.19;6177627;28;20497;-73
2021/05/22 11:00:23;;;;;;;2.03;0.90;;;;;;;9.67;100.00;99904.00;6223419;28;20056;-74
2021/05/22 11:03:24;;;;;;;6.18;1.52;;;;;;;9.60;100.00;99914.06;6223767;28;20061;-74
2021/05/22 11:06:39;;;;;;;3.72;0.98;;;;;;;9.53;100.00;99906.66;6223183;28;20477;-74
2021/05/22 11:09:51;;;;;;;6.80;1.23;;;;;;;9.54;100.00;99918.88;6223197;28;20049;-73
2021/05/22 11:12:52;;;;;;;2.97;1.00;;;;;;;9.61;100.00;99925.41;6223222;28;20501;-74
2021/05/22 11:15:55;;;;;;;5.22;1.27;;;;;;;9.76;100.00;99926.22;6207653;28;20045;-74
2021/05/22 11:19:04;;;;;;;9.60;1.60;;;;;;;9.68;100.00;99931.97;6200264;28;20497;-73
2021/05/22 11:22:15;;;;;;;3.30;1.45;;;;;;;9.86;100.00;99919.47;6211528;28;20162;-74
2021/05/22 11:25:18;;;;;;;3.15;1.20;;;;;;;9.81;100.00;99926.75;6208351;28;20436;-73
2021/05/22 11:28:22;;;;;;;7.28;1.38;;;;;;;9.79;100.00;99931.28;6209626;28;20050;-74
2021/05/22 11:31:32;;;;;;;4.30;1.20;;;;;;;9.83;100.00;99932.78;6200774;28;20473;-74
2021/05/22 11:34:33;;;;;;;5.65;3.40;;;;;;;9.89;100.00;99935.84;6208491;28;20045;-74
2021/05/22 11:37:35;;;;;;;6.85;1.48;;;;;;;10.00;100.00;99932.53;6209566;28;20045;-76
2021/05/22 11:40:48;;;;;;;3.05;1.35;;;;;;;10.18;100.00;99933.16;6207065;28;20512;-74
2021/05/22 11:43:49;;;;;;;2.95;1.00;;;;;;;10.13;100.00;99932.59;6207798;28;20054;-74
2021/05/22 11:46:52;;;;;;;2.85;1.10;;;;;;;10.22;100.00;99932.00;6209839;28;20066;-75
2021/05/22 11:49:53;;;;;;;2.40;1.20;;;;;;;10.20;100.00;99935.66;6203659;28;20050;-74
2021/05/22 11:52:54;;;;;;;3.47;1.20;;;;;;;10.23;100.00;99932.84;6212437;28;20060;-74
2021/05/22 11:55:56;;;;;;;4.00;1.08;;;;;;;10.35;100.00;99922.38;6203803;28;20528;-75
2021/05/22 11:58:58;;;;;;;3.83;1.27;;;;;;;10.46;100.00;99928.75;6210294;28;20053;-75
2021/05/22 12:01:59;;;;;;;4.72;1.30;;;;;;;10.50;100.00;99932.84;6222564;28;20103;-73
2021/05/22 12:05:00;;;;;;;6.05;1.35;;;;;;;10.43;100.00;99926.31;6221993;28;20054;-74
2021/05/22 12:08:01;;;;;;;4.68;1.30;;;;;;;10.34;100.00;99920.72;6221504;28;20470;-74
2021/05/22 12:11:14;;;;;;;4.32;1.30;;;;;;;10.27;100.00;99937.84;6221724;28;20066;-74
2021/05/22 12:14:14;;;;;;;4.47;1.50;;;;;;;10.23;100.00;99938.94;6221977;28;20056;-75
2021/05/22 12:17:17;;;;;;;3.97;1.40;;;;;;;10.23;100.00;99945.97;6220429;28;20061;-74
2021/05/22 12:20:18;;;;;;;5.15;1.40;;;;;;;10.29;100.00;99948.22;6221559;28;20128;-74
2021/05/22 12:23:25;;;;;;;4.43;1.52;;;;;;;10.24;100.00;99951.16;6218504;28;20050;-75
2021/05/22 12:26:26;;;;;;;7.05;1.70;;;;;;;10.35;100.00;99955.69;6197601;28;20058;-75
2021/05/22 12:29:30;;;;;;;3.55;1.30;;;;;;;10.37;100.00;99945.94;6196665;28;20058;-74
2021/05/22 12:32:31;;;;;;;4.57;1.27;;;;;;;10.33;100.00;99957.59;6197875;28;20502;-75
2021/05/22 12:35:31;;;;;;;4.63;1.40;;;;;;;10.41;100.00;99955.31;6197195;28;20059;-74
2021/05/22 12:38:41;;;;;;;3.45;1.35;;;;;;;10.35;100.00;99953.06;6196765;28;20042;-74
2021/05/22 12:41:42;;;;;;;4.28;1.70;;;;;;;10.36;100.00;99952.16;6197351;28;20051;-74
2021/05/22 12:44:43;;;;;;;5.28;1.30;;;;;;;10.30;100.00;99969.13;6196216;28;20113;-75
2021/05/22 12:47:46;;;;;;;4.95;1.60;;;;;;;10.55;100.00;99970.19;6197163;28;20053;-75
2021/05/22 12:50:46;;;;;;;4.43;1.20;;;;;;;10.33;100.00;99968.94;6196882;28;20054;-75
2021/05/22 12:53:48;;;;;;;4.45;1.90;;;;;;;10.27;100.00;99971.97;6197190;28;20085;-75
2021/05/22 12:57:00;;;;;;;5.40;1.73;;;;;;;10.27;100.00;99971.97;6196892;28;20513;-75
2021/05/22 13:00:10;;;;;;;7.72;2.25;;;;;;;10.36;100.00;99965.28;6198270;28;20050;-74
2021/05/22 13:03:11;;;;;;;;;;;;;;;10.39;100.00;99965.06;6202764;28;20569;-74
2021/05/22 13:06:14;;;;;;;6.63;2.22;;;;;;;10.53;100.00;99975.50;6201543;28;19925;-75
2021/05/22 13:09:15;;;;;;;4.28;1.77;;;;;;;10.57;100.00;99979.63;6201026;28;20690;-74
2021/05/22 13:12:16;;;;;;;5.35;2.15;;;;;;;10.64;100.00;99972.19;6201731;28;20097;-74
2021/05/22 13:15:18;;;;;;;6.88;2.10;;;;;;;10.57;100.00;99982.25;6201656;28;20457;-74
2021/05/22 13:18:26;;;;;;;6.18;2.53;;;;;;;10.64;100.00;99985.34;6200870;28;20050;-75
2021/05/22 13:21:31;;;;;;;9.63;2.28;;;;;;;10.60;100.00;99989.94;6231840;23;20045;-76
2021/05/22 13:24:32;;;;;;;5.57;2.55;;;;;;;10.62;100.00;99995.09;6272335;28;20040;-77
2021/05/22 13:27:34;;;;;;;9.02;2.40;;;;;;;10.56;100.00;99996.34;6254819;28;20184;-76
2021/05/22 13:30:37;;;;;;;8.98;2.80;;;;;;;10.67;100.00;99990.38;6269698;28;20072;-75
2021/05/22 13:33:42;;;;;;;9.45;2.35;;;;;;;10.79;100.00;99988.72;6265598;28;20045;-76
2021/05/22 13:36:43;;;;;;;6.45;2.00;;;;;;;10.83;100.00;99984.94;6248910;28;20144;-77
2021/05/22 13:39:45;;;;;;;3.13;2.03;;;;;;;10.85;100.00;99989.16;6246565;28;20738;-79
2021/05/22 13:42:46;;;;;;;6.05;1.92;;;;;;;10.95;100.00;99991.19;6254888;28;20049;-81
2021/05/22 13:45:47;;;;;;;6.05;1.80;;;;;;;11.05;100.00;99990.47;6256131;28;20061;-80
2021/05/22 13:48:48;;;;;;;4.63;2.15;;;;;;;11.21;100.00;99990.25;6242409;28;20132;-83
2021/05/22 13:51:49;;;;;;;5.05;1.90;;;;;;;11.34;100.00;99991.09;6252718;28;20049;-80
2021/05/22 13:54:51;;;;;;;4.55;1.90;;;;;;;11.23;100.00;99987.53;6254240;28;20127;-79
2021/05/22 13:57:53;;;;;;;5.60;2.00;;;;;;;11.16;100.00;99989.72;6253281;28;20056;-82
2021/05/22 14:00:54;;;;;;;6.85;1.80;;;;;;;11.11;100.00;100003.19;6253606;28;20053;-79
2021/05/22 14:03:55;;;;;;;5.15;1.73;;;;;;;11.06;100.00;100002.66;6255230;28;20060;-78
2021/05/22 14:06:56;;;;;;;4.30;1.90;;;;;;;11.04;100.00;99996.66;6253969;28;20511;-78
2021/05/22 14:09:57;;;;;;;3.85;1.70;;;;;;;11.03;100.00;99991.50;6250681;28;20045;-76
2021/05/22 14:13:01;;;;;;;3.30;1.70;;;;;;;10.99;100.00;100006.66;6250706;28;20056;-79
2021/05/22 14:16:05;;;;;;;5.55;1.85;;;;;;;11.06;100.00;100001.81;6249990;28;20136;-79
2021/05/22 14:19:06;;;;;;;4.43;1.67;;;;;;;11.08;99.30;100002.53;6250225;28;20079;-78
2021/05/22 14:22:07;;;;;;;3.75;1.40;;;;;;;11.14;99.65;100002.16;6250177;28;20486;-77